createdAt,value
2023-02-13T00:02:24.903Z,1.98
2023-02-13T00:04:57.663Z,2.10
2023-02-13T00:07:27.951Z,2.25
2023-02-13T00:09:58.186Z,2.10
2023-02-13T00:12:28.314Z,2.17
2023-02-13T00:14:59.453Z,2.83
2023-02-13T00:17:29.950Z,1.80
2023-02-13T00:20:02.574Z,1.58
2023-02-13T00:22:33.431Z,1.90
2023-02-13T00:25:03.737Z,2.38
2023-02-13T00:27:33.959Z,3.10
2023-02-13T00:30:05.758Z,2.15
2023-02-13T00:32:35.998Z,2.22
2023-02-13T00:35:09.384Z,3.35
2023-02-13T00:37:39.362Z,2.23
2023-02-13T00:40:11.505Z,3.08
2023-02-13T00:42:41.895Z,2.35
2023-02-13T00:45:13.053Z,2.42
2023-02-13T00:47:42.991Z,2.55
2023-02-13T00:50:15.995Z,2.22
2023-02-13T00:52:46.029Z,3.13
2023-02-13T00:55:16.284Z,1.95
2023-02-13T00:57:46.684Z,3.13
2023-02-13T01:00:18.302Z,3.08
2023-02-13T01:02:48.408Z,2.15
2023-02-13T01:05:21.164Z,3.03
2023-02-13T01:07:52.589Z,2.55
2023-02-13T01:10:23.219Z,2.40
2023-02-13T01:12:53.611Z,2.65
2023-02-13T01:15:24.426Z,2.10
2023-02-13T01:17:57.658Z,3.00
2023-02-13T01:20:33.226Z,4.95
2023-02-13T01:23:03.255Z,4.00
2023-02-13T01:25:33.247Z,3.10
2023-02-13T01:28:03.373Z,3.15
2023-02-13T01:30:33.546Z,2.97
2023-02-13T01:33:03.580Z,2.08
2023-02-13T01:35:36.305Z,2.83
2023-02-13T01:38:07.410Z,1.90
2023-02-13T01:40:37.456Z,2.40
2023-02-13T01:43:12.247Z,2.15
2023-02-13T01:45:42.508Z,1.58
2023-02-13T01:48:18.978Z,2.63
2023-02-13T01:50:56.943Z,2.65
2023-02-13T01:53:31.885Z,1.90
2023-02-13T01:56:06.015Z,1.63
2023-02-13T01:58:39.572Z,2.25
2023-02-13T02:01:11.497Z,1.98
2023-02-13T02:03:50.621Z,3.00
2023-02-13T02:06:29.563Z,2.85
2023-02-13T02:09:04.991Z,2.30
2023-02-13T02:11:42.594Z,3.22
2023-02-13T02:14:15.419Z,2.97
2023-02-13T02:16:46.042Z,2.28
2023-02-13T02:19:23.511Z,2.60
2023-02-13T02:22:22.096Z,2.15
2023-02-13T02:25:25.558Z,3.30
2023-02-13T02:28:32.061Z,3.58
2023-02-13T02:31:57.548Z,4.00
2023-02-13T02:34:39.113Z,3.17
2023-02-13T02:37:21.097Z,3.22
2023-02-13T02:40:04.396Z,2.75
2023-02-13T02:42:48.441Z,3.08
2023-02-13T02:45:27.706Z,2.78
2023-02-13T02:48:15.626Z,2.80
2023-02-13T02:50:55.670Z,3.75
2023-02-13T02:53:36.226Z,4.30
2023-02-13T02:56:14.618Z,4.78
2023-02-13T02:59:02.676Z,4.00
2023-02-13T03:01:49.795Z,4.38
2023-02-13T03:07:11.624Z,2.70
2023-02-13T03:09:57.048Z,2.20
2023-02-13T03:12:45.954Z,2.67
2023-02-13T03:15:16.634Z,2.47
2023-02-13T03:17:59.180Z,2.50
2023-02-13T03:20:54.886Z,3.00
2023-02-13T03:23:37.739Z,3.40
2023-02-13T03:26:45.486Z,2.85
2023-02-13T03:29:37.117Z,3.70
2023-02-13T03:32:14.863Z,2.22
2023-02-13T03:35:07.509Z,2.20
2023-02-13T03:37:58.280Z,2.33
2023-02-13T03:40:59.462Z,2.78
2023-02-13T03:43:32.721Z,2.22
2023-02-13T03:46:03.484Z,1.95
2023-02-13T03:48:49.546Z,3.08
2023-02-13T03:51:25.332Z,2.95
2023-02-13T03:53:59.561Z,2.78
2023-02-13T03:56:47.497Z,2.67
2023-02-13T03:59:25.201Z,3.22
2023-02-13T04:02:02.828Z,2.10
2023-02-13T04:04:42.247Z,2.10
2023-02-13T04:07:29.613Z,2.88
2023-02-13T04:10:01.993Z,4.82
2023-02-13T04:12:42.243Z,5.13
2023-02-13T04:15:18.749Z,2.40
2023-02-13T04:17:52.959Z,2.75
2023-02-13T04:22:52.704Z,2.40
2023-02-13T04:25:23.517Z,2.10
2023-02-13T04:27:55.992Z,2.78
2023-02-13T04:30:26.085Z,2.60
2023-02-13T04:32:56.198Z,2.65
2023-02-13T04:35:26.112Z,2.03
2023-02-13T04:37:56.130Z,2.78
2023-02-13T04:40:26.156Z,1.70
2023-02-13T04:42:59.111Z,2.55
2023-02-13T04:45:29.426Z,2.67
2023-02-13T04:48:02.849Z,2.53
2023-02-13T04:50:32.985Z,2.10
2023-02-13T04:53:02.966Z,2.42
2023-02-13T04:55:33.167Z,2.60
2023-02-13T04:58:05.699Z,3.63
2023-02-13T05:00:37.690Z,3.25
2023-02-13T05:03:09.002Z,2.38
2023-02-13T05:05:39.158Z,3.55
2023-02-13T05:08:10.932Z,2.65
2023-02-13T05:10:41.027Z,2.90
2023-02-13T05:13:14.128Z,3.00
2023-02-13T05:15:44.303Z,2.20
2023-02-13T05:18:15.592Z,2.78
2023-02-13T05:20:45.522Z,1.80
2023-02-13T05:23:26.321Z,2.28
2023-02-13T05:25:56.534Z,2.47
2023-02-13T05:28:44.319Z,1.70
2023-02-13T05:31:14.535Z,1.63
2023-02-13T05:33:44.725Z,1.80
2023-02-13T05:36:15.066Z,3.55
2023-02-13T05:38:44.926Z,3.20
2023-02-13T05:41:16.296Z,2.45
2023-02-13T05:43:48.853Z,2.88
2023-02-13T05:46:18.842Z,3.53
2023-02-13T05:48:48.881Z,2.20
2023-02-13T05:51:18.920Z,3.63
2023-02-13T05:53:48.884Z,2.38
2023-02-13T05:56:19.039Z,3.25
2023-02-13T05:58:54.392Z,3.33
2023-02-13T06:01:24.955Z,2.92
2023-02-13T06:03:56.729Z,2.33
2023-02-13T06:06:28.685Z,2.28
2023-02-13T06:08:58.697Z,1.80
2023-02-13T06:11:29.023Z,2.58
2023-02-13T06:14:01.614Z,2.47
2023-02-13T06:16:31.894Z,2.13
2023-02-13T06:19:01.844Z,2.22
2023-02-13T06:21:33.467Z,2.03
2023-02-13T06:24:03.597Z,2.85
2023-02-13T06:26:33.668Z,2.90
2023-02-13T06:29:06.898Z,2.25
2023-02-13T06:31:37.249Z,2.78
2023-02-13T06:34:07.687Z,1.58
2023-02-13T06:36:38.512Z,1.70
2023-02-13T06:39:08.573Z,3.78
2023-02-13T06:41:38.727Z,1.70
2023-02-13T06:44:11.958Z,1.33
2023-02-13T06:46:42.000Z,2.78
2023-02-13T06:49:12.682Z,1.40
2023-02-13T06:51:42.653Z,1.70
2023-02-13T06:54:12.681Z,3.58
2023-02-13T06:56:43.053Z,2.00
2023-02-13T06:59:15.658Z,1.77
2023-02-13T07:01:45.651Z,3.42
2023-02-13T07:04:15.671Z,1.88
2023-02-13T07:06:45.488Z,2.20
2023-02-13T07:09:16.763Z,2.60
2023-02-13T07:11:46.706Z,2.17
2023-02-13T07:14:19.391Z,2.20
2023-02-13T07:16:49.588Z,1.73
2023-02-13T07:19:19.597Z,2.35
2023-02-13T07:21:49.545Z,2.00
2023-02-13T07:24:19.473Z,1.45
2023-02-13T07:26:49.575Z,1.40
2023-02-13T07:29:22.208Z,2.78
2023-02-13T07:31:52.186Z,1.55
2023-02-13T07:34:22.247Z,1.85
2023-02-13T07:36:52.199Z,1.77
2023-02-13T07:39:22.134Z,2.15
2023-02-13T07:41:52.202Z,2.55
2023-02-13T07:44:24.905Z,2.58
2023-02-13T07:46:54.921Z,1.80
2023-02-13T07:49:24.820Z,2.63
2023-02-13T07:51:54.824Z,2.22
2023-02-13T07:54:24.994Z,1.40
2023-02-13T07:56:54.958Z,3.15
2023-02-13T07:59:27.771Z,2.42
2023-02-13T08:01:57.746Z,3.20
2023-02-13T08:04:27.801Z,3.42
2023-02-13T08:06:57.973Z,4.85
2023-02-13T08:09:40.987Z,3.97
2023-02-13T08:12:12.571Z,2.70
2023-02-13T08:14:45.088Z,3.95
2023-02-13T08:17:15.416Z,2.60
2023-02-13T08:19:45.282Z,2.85
2023-02-13T08:22:15.317Z,2.20
2023-02-13T08:24:45.812Z,2.67
2023-02-13T08:27:16.341Z,2.88
2023-02-13T08:29:49.254Z,3.70
2023-02-13T08:32:19.591Z,2.65
2023-02-13T08:34:49.629Z,3.80
2023-02-13T08:37:19.633Z,2.03
2023-02-13T08:39:49.678Z,2.60
2023-02-13T08:42:20.080Z,2.90
2023-02-13T08:44:52.744Z,3.20
2023-02-13T08:47:22.860Z,1.83
2023-02-13T08:49:53.023Z,2.03
2023-02-13T08:52:23.531Z,1.83
2023-02-13T08:54:53.442Z,2.63
2023-02-13T08:57:23.440Z,2.53
2023-02-13T08:59:56.062Z,2.58
2023-02-13T09:02:26.287Z,3.05
2023-02-13T09:04:56.427Z,2.53
2023-02-13T09:07:26.637Z,2.55
2023-02-13T09:09:56.664Z,1.73
2023-02-13T09:12:26.872Z,3.65
2023-02-13T09:14:59.320Z,2.22
2023-02-13T09:17:29.298Z,2.33
2023-02-13T09:19:59.192Z,1.73
2023-02-13T09:22:29.096Z,3.45
2023-02-13T09:25:01.084Z,2.45
2023-02-13T09:27:31.073Z,1.80
2023-02-13T09:30:04.512Z,2.42
2023-02-13T09:32:36.794Z,1.85
2023-02-13T09:35:06.664Z,2.70
2023-02-13T09:37:36.681Z,2.67
2023-02-13T09:40:07.120Z,2.58
2023-02-13T09:42:39.805Z,1.88
2023-02-13T09:45:16.965Z,0.95
2023-02-13T09:47:48.006Z,1.55
2023-02-13T09:50:24.698Z,1.90
2023-02-13T09:52:57.587Z,2.17
2023-02-13T09:55:37.398Z,2.92
2023-02-13T09:58:16.432Z,2.40
2023-02-13T10:00:54.441Z,3.42
2023-02-13T10:03:32.666Z,2.15
2023-02-13T10:06:11.593Z,2.90
2023-02-13T10:08:59.597Z,2.70
2023-02-13T10:11:50.018Z,2.55
2023-02-13T10:14:22.480Z,1.75
2023-02-13T10:17:01.681Z,1.80
2023-02-13T10:19:38.109Z,2.08
2023-02-13T10:22:14.875Z,1.80
2023-02-13T10:24:50.202Z,2.40
2023-02-13T10:27:25.473Z,2.55
2023-02-13T10:30:12.605Z,2.55
2023-02-13T10:33:11.322Z,2.85
2023-02-13T10:35:42.195Z,2.50
2023-02-13T10:38:18.775Z,2.63
2023-02-13T10:41:02.437Z,2.47
2023-02-13T10:43:38.231Z,2.17
2023-02-13T10:46:17.566Z,2.90
2023-02-13T10:49:21.048Z,1.45
2023-02-13T10:51:58.869Z,1.83
2023-02-13T10:54:48.003Z,1.52
2023-02-13T10:57:24.956Z,1.42
2023-02-13T11:00:08.130Z,1.70
2023-02-13T11:02:38.884Z,1.17
2023-02-13T11:05:18.235Z,1.60
2023-02-13T11:07:49.652Z,2.38
2023-02-13T11:10:22.577Z,2.42
2023-02-13T11:12:53.396Z,1.90
2023-02-13T11:15:26.473Z,2.30
2023-02-13T11:17:59.629Z,2.28
2023-02-13T11:20:38.911Z,2.50
2023-02-13T11:23:28.445Z,2.13
2023-02-13T11:26:04.378Z,2.03
2023-02-13T11:28:38.843Z,1.50
2023-02-13T11:31:15.671Z,2.17
2023-02-13T11:33:46.217Z,1.85
2023-02-13T11:36:27.935Z,2.53
2023-02-13T11:39:03.551Z,1.85
2023-02-13T11:41:39.173Z,1.95
2023-02-13T11:44:24.789Z,1.88
2023-02-13T11:46:56.052Z,3.47
2023-02-13T11:49:28.465Z,3.03
2023-02-13T11:52:03.888Z,1.65
2023-02-13T11:54:37.194Z,2.08
2023-02-13T11:57:24.972Z,1.73
2023-02-13T11:59:56.305Z,2.60
2023-02-13T12:02:27.921Z,1.95
2023-02-13T12:05:17.044Z,1.83
2023-02-13T12:07:50.510Z,2.33
2023-02-13T12:10:26.335Z,3.38
2023-02-13T12:12:59.029Z,1.23
2023-02-13T12:15:31.028Z,2.00
2023-02-13T12:18:13.601Z,3.45
2023-02-13T12:20:55.695Z,2.13
2023-02-13T12:23:40.556Z,2.22
2023-02-13T12:29:02.030Z,2.05
2023-02-13T12:31:51.653Z,1.33
2023-02-13T12:35:00.200Z,1.67
2023-02-13T12:37:48.235Z,1.10
2023-02-13T12:40:36.996Z,1.45
2023-02-13T12:43:28.688Z,2.05
2023-02-13T12:46:06.781Z,1.30
2023-02-13T12:48:43.130Z,1.17
2023-02-13T12:51:38.299Z,2.10
2023-02-13T12:54:27.352Z,1.83
2023-02-13T12:57:12.425Z,2.28
2023-02-13T13:00:01.420Z,1.33
2023-02-13T13:02:52.940Z,4.70
2023-02-13T13:05:34.604Z,1.15
2023-02-13T13:08:21.648Z,2.50
2023-02-13T13:11:08.837Z,1.23
2023-02-13T13:13:55.074Z,1.42
2023-02-13T13:16:32.920Z,2.00
2023-02-13T13:19:14.545Z,2.38
2023-02-13T13:21:50.225Z,1.48
2023-02-13T13:24:36.540Z,1.67
2023-02-13T13:27:07.633Z,1.67
2023-02-13T13:29:47.824Z,1.67
2023-02-13T13:32:23.168Z,2.70
2023-02-13T13:34:54.297Z,1.88
2023-02-13T13:37:32.525Z,2.17
2023-02-13T13:40:12.697Z,2.35
2023-02-13T13:42:47.707Z,1.50
2023-02-13T13:45:34.063Z,2.83
2023-02-13T13:48:19.605Z,2.35
2023-02-13T13:50:51.096Z,2.60
2023-02-13T13:53:23.565Z,2.78
2023-02-13T13:56:09.738Z,2.40
2023-02-13T13:58:44.394Z,3.67
2023-02-13T14:01:29.410Z,3.97
2023-02-13T14:04:02.345Z,3.20
2023-02-13T14:07:07.188Z,2.83
2023-02-13T14:09:43.293Z,2.97
2023-02-13T14:12:41.734Z,1.90
2023-02-13T14:15:47.236Z,2.70
2023-02-13T14:18:25.654Z,2.47
2023-02-13T14:20:58.946Z,2.85
2023-02-13T14:23:40.274Z,1.73
2023-02-13T14:26:29.210Z,2.00
2023-02-13T14:29:05.092Z,2.20
2023-02-13T14:31:39.458Z,2.38
2023-02-13T14:34:26.672Z,1.98
2023-02-13T14:37:09.753Z,3.08
2023-02-13T14:39:46.309Z,2.33
2023-02-13T14:42:29.272Z,2.10
2023-02-13T14:45:02.553Z,5.65
2023-02-13T14:47:35.255Z,2.58
2023-02-13T14:50:09.950Z,2.50
2023-02-13T14:52:43.170Z,3.05
2023-02-13T14:55:18.345Z,2.30
2023-02-13T14:57:52.089Z,2.13
2023-02-13T15:00:28.660Z,2.33
2023-02-13T15:03:02.802Z,1.55
2023-02-13T15:08:16.481Z,1.65
2023-02-13T15:10:49.727Z,1.42
2023-02-13T15:13:23.526Z,1.42
2023-02-13T15:15:59.491Z,2.17
2023-02-13T15:18:32.177Z,2.08
2023-02-13T15:21:05.486Z,3.47
2023-02-13T15:23:37.773Z,5.33
2023-02-13T15:26:10.142Z,2.75
2023-02-13T15:28:40.163Z,3.05
2023-02-13T15:31:25.766Z,2.40
2023-02-13T15:33:58.010Z,3.55
2023-02-13T15:36:39.091Z,3.90
2023-02-13T15:39:10.423Z,3.08
2023-02-13T15:41:43.760Z,2.50
2023-02-13T15:44:21.141Z,2.53
2023-02-13T15:46:53.465Z,2.35
2023-02-13T15:49:26.825Z,2.08
2023-02-13T15:52:10.457Z,2.00
2023-02-13T15:54:51.609Z,1.57
2023-02-13T15:57:24.146Z,2.40
2023-02-13T15:59:56.092Z,2.67
2023-02-13T16:02:31.238Z,2.45
2023-02-13T16:05:04.103Z,2.42
2023-02-13T16:07:50.998Z,2.17
2023-02-13T16:10:28.517Z,4.30
2023-02-13T16:13:00.589Z,3.22
2023-02-13T16:15:33.417Z,2.05
2023-02-13T16:18:03.986Z,2.55
2023-02-13T16:20:38.656Z,2.10
2023-02-13T16:23:21.230Z,2.17
2023-02-13T16:25:51.672Z,2.28
2023-02-13T16:28:25.835Z,2.40
2023-02-13T16:31:01.778Z,2.03
2023-02-13T16:33:33.211Z,1.67
2023-02-13T16:36:19.447Z,2.17
2023-02-13T16:38:53.321Z,2.00
2023-02-13T16:41:34.812Z,1.48
2023-02-13T16:44:06.000Z,2.15
2023-02-13T16:46:38.421Z,2.03
2023-02-13T16:49:26.608Z,2.25
2023-02-13T16:52:03.592Z,1.85
2023-02-13T16:54:39.209Z,1.95
2023-02-13T16:57:23.077Z,1.58
2023-02-13T17:00:22.675Z,1.92
2023-02-13T17:02:54.555Z,1.92
2023-02-13T17:05:26.141Z,1.80
2023-02-13T17:07:58.056Z,2.65
2023-02-13T17:10:34.088Z,3.90
2023-02-13T17:13:05.966Z,2.25
2023-02-13T17:15:36.262Z,1.60
2023-02-13T17:18:06.547Z,2.42
2023-02-13T17:20:38.331Z,1.92
2023-02-13T17:23:12.708Z,1.45
2023-02-13T17:25:48.264Z,1.23
2023-02-13T17:28:21.237Z,1.23
2023-02-13T17:30:52.946Z,1.27
2023-02-13T17:33:25.645Z,1.13
2023-02-13T17:35:59.244Z,1.42
2023-02-13T17:38:29.401Z,1.80
2023-02-13T17:41:02.890Z,1.73
2023-02-13T17:43:33.860Z,1.15
2023-02-13T17:46:04.577Z,1.98
2023-02-13T17:48:34.826Z,1.98
2023-02-13T17:51:04.882Z,2.17
2023-02-13T17:53:35.034Z,1.42
2023-02-13T17:56:07.892Z,2.35
2023-02-13T17:58:37.756Z,1.92
2023-02-13T18:01:08.001Z,1.83
2023-02-13T18:03:39.380Z,1.58
2023-02-13T18:06:15.952Z,1.77
2023-02-13T18:08:45.961Z,2.15
2023-02-13T18:11:18.456Z,2.22
2023-02-13T18:13:48.803Z,2.20
2023-02-13T18:16:19.452Z,2.38
2023-02-13T18:18:49.307Z,3.10
2023-02-13T18:21:19.281Z,2.83
2023-02-13T18:23:49.290Z,1.95
2023-02-13T18:26:22.114Z,2.20
2023-02-13T18:28:54.070Z,2.72
2023-02-13T18:31:24.116Z,1.95
2023-02-13T18:33:54.225Z,2.03
2023-02-13T18:36:24.232Z,1.90
2023-02-13T18:38:54.693Z,2.50
2023-02-13T18:41:27.240Z,2.40
2023-02-13T18:43:59.464Z,2.25
2023-02-13T18:46:29.496Z,2.47
2023-02-13T18:48:59.592Z,2.78
2023-02-13T18:51:29.780Z,1.83
2023-02-13T18:54:00.379Z,1.98
2023-02-13T18:56:32.967Z,2.22
2023-02-13T18:59:02.841Z,2.15
2023-02-13T19:01:32.813Z,2.80
2023-02-13T19:04:04.318Z,2.28
2023-02-13T19:06:35.628Z,2.10
2023-02-13T19:09:05.636Z,1.92
2023-02-13T19:11:39.018Z,2.40
2023-02-13T19:14:15.267Z,1.77
2023-02-13T19:16:45.914Z,3.83
2023-02-13T19:19:16.272Z,2.83
2023-02-13T19:21:46.159Z,2.85
2023-02-13T19:24:18.633Z,2.45
2023-02-13T19:26:51.115Z,2.55
2023-02-13T19:29:21.958Z,2.92
2023-02-13T19:31:52.025Z,1.98
2023-02-13T19:34:21.943Z,2.63
2023-02-13T19:36:51.900Z,3.05
2023-02-13T19:39:21.853Z,4.10
2023-02-13T19:41:54.460Z,2.67
2023-02-13T19:44:24.434Z,1.85
2023-02-13T19:46:54.552Z,2.30
2023-02-13T19:49:24.999Z,4.03
2023-02-13T19:51:54.918Z,2.10
2023-02-13T19:54:25.048Z,3.85
2023-02-13T19:57:00.475Z,3.13
2023-02-13T19:59:32.610Z,3.97
2023-02-13T20:02:02.587Z,3.17
2023-02-13T20:04:32.523Z,2.95
2023-02-13T20:07:02.406Z,2.72
2023-02-13T20:09:32.378Z,3.30
2023-02-13T20:12:04.979Z,3.28
2023-02-13T20:14:35.096Z,3.60
2023-02-13T20:17:05.004Z,4.45
2023-02-13T20:19:35.848Z,3.40
2023-02-13T20:22:05.856Z,3.63
2023-02-13T20:24:35.932Z,4.13
2023-02-13T20:27:10.472Z,4.30
2023-02-13T20:29:40.963Z,4.63
2023-02-13T20:32:11.458Z,4.22
2023-02-13T20:34:58.412Z,4.10
2023-02-13T20:37:29.582Z,5.20
2023-02-13T20:39:59.415Z,3.85
2023-02-13T20:42:34.708Z,3.53
2023-02-13T20:45:04.862Z,4.18
2023-02-13T20:47:34.838Z,9.77
2023-02-13T20:50:04.762Z,7.15
2023-02-13T20:52:34.675Z,4.88
2023-02-13T20:55:04.682Z,4.60
2023-02-13T20:57:39.123Z,4.65
2023-02-13T21:00:13.757Z,5.45
2023-02-13T21:02:43.774Z,4.50
2023-02-13T21:05:13.727Z,4.30
2023-02-13T21:07:43.852Z,5.28
2023-02-13T21:10:14.295Z,4.60
2023-02-13T21:12:46.847Z,4.63
2023-02-13T21:15:16.913Z,5.18
2023-02-13T21:17:46.806Z,5.20
2023-02-13T21:20:16.710Z,4.43
2023-02-13T21:22:47.216Z,4.55
2023-02-13T21:25:18.793Z,5.63
2023-02-13T21:27:51.397Z,5.00
2023-02-13T21:30:21.404Z,4.50
2023-02-13T21:32:51.298Z,4.53
2023-02-13T21:35:21.697Z,5.55
2023-02-13T21:37:51.725Z,4.55
2023-02-13T21:40:22.173Z,5.72
2023-02-13T21:42:57.457Z,5.35
2023-02-13T21:45:27.407Z,5.78
2023-02-13T21:47:58.375Z,6.60
2023-02-13T21:50:28.315Z,4.55
2023-02-13T21:52:58.436Z,4.93
2023-02-13T21:55:29.355Z,4.65
2023-02-13T21:58:01.855Z,6.35
2023-02-13T22:00:32.141Z,6.93
2023-02-13T22:03:02.190Z,6.25
2023-02-13T22:05:32.625Z,5.70
2023-02-13T22:08:14.442Z,4.20
2023-02-13T22:10:44.813Z,4.43
2023-02-13T22:13:17.276Z,4.80
2023-02-13T22:15:47.199Z,5.93
2023-02-13T22:18:17.075Z,5.25
2023-02-13T22:20:47.006Z,5.05
2023-02-13T22:23:17.013Z,4.03
2023-02-13T22:25:50.350Z,6.35
2023-02-13T22:28:22.937Z,5.40
2023-02-13T22:30:53.137Z,4.63
2023-02-13T22:33:23.283Z,7.30
2023-02-13T22:35:53.312Z,5.82
2023-02-13T22:38:23.604Z,5.15
2023-02-13T22:40:53.477Z,4.85
2023-02-13T22:43:25.986Z,3.95
2023-02-13T22:45:55.944Z,4.75
2023-02-13T22:48:25.875Z,5.07
2023-02-13T22:50:55.880Z,5.05
2023-02-13T22:53:26.034Z,8.68
2023-02-13T22:55:55.924Z,7.70
2023-02-13T22:58:29.652Z,8.55
2023-02-13T23:01:00.099Z,5.75
2023-02-13T23:03:34.016Z,5.43
2023-02-13T23:06:06.191Z,5.27
2023-02-13T23:08:36.268Z,6.00
2023-02-13T23:11:23.745Z,4.70
2023-02-13T23:13:56.492Z,5.70
2023-02-13T23:16:26.524Z,5.03
2023-02-13T23:18:55.133Z,6.05
2023-02-13T23:21:25.910Z,8.60
2023-02-13T23:23:55.911Z,6.53
2023-02-13T23:26:26.279Z,5.28
2023-02-13T23:29:01.926Z,5.28
2023-02-13T23:31:32.056Z,7.15
2023-02-13T23:34:02.254Z,7.13
2023-02-13T23:36:32.420Z,6.43
2023-02-13T23:39:02.359Z,6.47
2023-02-13T23:41:32.355Z,5.68
2023-02-13T23:44:04.974Z,6.00
2023-02-13T23:46:34.969Z,5.85
2023-02-13T23:49:07.201Z,4.82
2023-02-13T23:51:37.480Z,7.55
2023-02-13T23:54:07.412Z,6.22
2023-02-13T23:56:37.499Z,6.93
2023-02-13T23:59:10.159Z,5.75
